首页
METAR-TAF:

METAR-TAF

机场 :

沙迦國際機場

夏尔迦, 阿拉伯联合酋长国

纬度: 25-20N, 经度: 055-31E, 海拔: 35米

当前天气观测

该预报发布于32分钟前的07:00 UTC
风速9节,风向西南,在西之间变化
温度 25°C
湿度 50%
气压 1015 hPa
能见度10公里或以上
1500米以下无云,无积雨云

METAR: OMSJ 310700Z 22009KT 170V260 CAVOK 25/14 Q1015 BECMG 28013KT

时间: 11:32 (07:32 UTC)

预报

该预报发布于2小时和31分钟前的05:01 UTC
预报有效从31日的 06点(UTC)到 01日的 12点(UTC)
风速8节,风向南转西南
能见度10公里或以上
1500米以下无云,无积雨云
成为
从 31日的 07点(UTC)到 31日的 09点(UTC)
风速13节,风向西
成为
从 31日的 16点(UTC)到 31日的 18点(UTC)
风速7节,风向南转西南
几率 30%
从 01日的 02点(UTC)到 01日的 04点(UTC)
能見度: 4000
成为
从 01日的 08点(UTC)到 01日的 10点(UTC)
风速12节,风向北转西北

TAF: OMSJ 310501Z 3106/0112 20008KT CAVOK BECMG 3107/3109 28013KT BECMG 3116/3118 20007KT PROB30 0102/0104 4000 HZ BECMG 0108/0110 33012KT

超过4000个机场的气象观测和天气预报(METAR&TAF报告)。

可查询的气象台以黄色和红色小点在地图上表示。

将鼠标移到小点上方,可查看气象台名称。

然后点击查看天气观测和预报。

如需切换地图:点击带黑十字的绿色按钮放大地图;点击带横线的绿色按钮缩小地图;或者点击绿色箭头查看邻近地区的地图。


METAR-TAF: